Time;durP1;ratioP1;P1;durP2;ratioP2;P2;SDS_P1;SDS_P2;PMS_P1;PMS_P2;Temp;Humidity;BMP_temperature;BMP_pressure;BME280_temperature;BME280_humidity;BME280_pressure;Samples;Min_cycle;Max_cycle;Signal;HPM_P1;HPM_P2
2022/06/10 00:00:37;;;;;;;0.22;0.22;;;13.90;73.30;;;;;;5013604;28;20116;-74
2022/06/10 00:03:05;;;;;;;0.20;0.20;;;13.80;73.30;;;;;;5013482;28;20038;-73
2022/06/10 00:05:31;;;;;;;0.20;0.20;;;13.80;73.40;;;;;;5013364;28;20033;-73
2022/06/10 00:07:58;;;;;;;0.30;0.30;;;13.80;73.40;;;;;;5013557;28;20045;-73
2022/06/10 00:10:26;;;;;;;0.73;0.32;;;13.80;73.60;;;;;;5012451;28;20034;-73
2022/06/10 00:12:52;;;;;;;0.30;0.30;;;13.80;73.60;;;;;;5013422;28;20049;-73
2022/06/10 00:15:18;;;;;;;1.23;0.30;;;13.80;73.70;;;;;;5013246;28;20046;-73
2022/06/10 00:17:44;;;;;;;0.75;0.50;;;13.80;73.80;;;;;;5013673;28;20030;-73
2022/06/10 00:20:14;;;;;;;0.30;0.30;;;13.80;73.90;;;;;;5013468;28;20068;-73
2022/06/10 00:22:40;;;;;;;0.85;0.43;;;13.60;73.90;;;;;;4995610;28;20065;-73
2022/06/10 00:25:07;;;;;;;0.20;0.20;;;13.70;74.10;;;;;;4979451;28;20453;-74
2022/06/10 00:27:33;;;;;;;0.80;0.40;;;13.60;74.20;;;;;;5013195;28;20042;-73
2022/06/10 00:29:59;;;;;;;0.30;0.30;;;13.60;74.30;;;;;;5013137;28;20042;-73
2022/06/10 00:32:25;;;;;;;0.22;0.22;;;13.60;74.40;;;;;;5013558;28;20042;-74
2022/06/10 00:34:50;;;;;;;0.30;0.30;;;13.50;74.50;;;;;;4994850;28;20136;-74
2022/06/10 00:37:17;;;;;;;0.30;0.30;;;13.50;74.60;;;;;;5013497;28;20034;-74
2022/06/10 00:39:43;;;;;;;0.63;0.40;;;13.50;74.60;;;;;;5013499;28;20117;-73
2022/06/10 00:42:11;;;;;;;0.30;0.30;;;13.40;74.60;;;;;;5013198;28;20030;-73
2022/06/10 00:44:45;;;;;;;0.32;0.30;;;13.40;74.80;;;;;;5013627;28;20038;-74
2022/06/10 00:47:23;;;;;;;0.30;0.30;;;13.30;74.80;;;;;;5010578;28;20136;-74
2022/06/10 00:49:56;;;;;;;0.50;0.40;;;13.30;74.90;;;;;;5013331;28;20038;-73
2022/06/10 00:52:29;;;;;;;0.63;0.30;;;13.30;75.00;;;;;;5012662;28;20042;-74
2022/06/10 00:54:56;;;;;;;0.52;0.40;;;13.30;75.00;;;;;;4995259;28;20038;-73
2022/06/10 00:57:31;;;;;;;0.45;0.40;;;13.30;75.10;;;;;;5012522;28;20034;-73
2022/06/10 01:00:06;;;;;;;0.63;0.30;;;13.20;75.10;;;;;;4996520;28;20500;-73
2022/06/10 01:02:35;;;;;;;0.20;0.20;;;13.20;75.30;;;;;;5013103;28;20097;-73
2022/06/10 01:05:04;;;;;;;0.57;0.40;;;13.10;75.30;;;;;;5012481;28;20037;-74
2022/06/10 01:07:35;;;;;;;0.38;0.30;;;13.10;75.40;;;;;;5012315;28;20113;-73
2022/06/10 01:10:03;;;;;;;;;;;13.10;75.50;;;;;;5012787;28;20088;-73
2022/06/10 01:12:56;;;;;;;0.20;0.20;;;13.10;75.40;;;;;;5010370;28;19905;-73
2022/06/10 01:15:43;;;;;;;0.40;0.30;;;13.00;75.40;;;;;;4995091;28;20406;-74
2022/06/10 01:18:26;;;;;;;0.30;0.30;;;13.00;75.50;;;;;;5012180;28;20034;-73
2022/06/10 01:21:23;;;;;;;0.30;0.30;;;13.00;75.70;;;;;;5012629;28;20129;-73
2022/06/10 01:24:18;;;;;;;0.20;0.20;;;13.00;75.80;;;;;;5012298;28;20046;-73
2022/06/10 01:30:16;;;;;;;0.47;0.30;;;12.90;75.90;;;;;;4999278;28;20038;-73
2022/06/10 01:33:14;;;;;;;0.25;0.25;;;12.80;76.40;;;;;;4996457;28;20038;-73
2022/06/10 01:35:59;;;;;;;0.30;0.30;;;12.80;75.90;;;;;;5011921;28;20049;-73
2022/06/10 01:38:40;;;;;;;0.40;0.30;;;12.80;76.10;;;;;;5011717;28;20105;-73
2022/06/10 01:41:24;;;;;;;0.55;0.32;;;12.80;76.10;;;;;;4994521;28;20038;-73
2022/06/10 01:44:14;;;;;;;0.28;0.20;;;12.80;76.30;;;;;;5012048;28;20065;-73
2022/06/10 01:46:55;;;;;;;0.55;0.20;;;12.70;76.30;;;;;;4997436;28;20046;-73
2022/06/10 01:49:28;;;;;;;0.20;0.20;;;12.70;76.30;;;;;;5012011;28;20168;-73
2022/06/10 01:52:14;;;;;;;1.42;0.45;;;12.80;76.40;;;;;;5011938;28;20036;-73
2022/06/10 01:55:03;;;;;;;1.02;0.38;;;12.70;76.40;;;;;;5011752;28;20049;-73
2022/06/10 01:57:45;;;;;;;1.27;0.30;;;12.70;76.50;;;;;;5012155;28;20494;-73
2022/06/10 02:00:18;;;;;;;0.80;0.40;;;12.70;76.40;;;;;;5011765;28;20440;-74
2022/06/10 02:02:54;;;;;;;0.30;0.30;;;12.70;76.50;;;;;;5012346;28;20034;-73
2022/06/10 02:05:22;;;;;;;0.65;0.30;;;12.70;77.20;;;;;;5012292;28;20096;-73
2022/06/10 02:07:54;;;;;;;0.32;0.20;;;12.60;76.60;;;;;;5012191;28;20401;-73
2022/06/10 02:10:36;;;;;;;0.35;0.35;;;12.60;76.70;;;;;;5012168;28;20042;-73
2022/06/10 02:13:09;;;;;;;0.22;0.22;;;12.60;76.70;;;;;;5011535;28;20030;-74
2022/06/10 02:15:41;;;;;;;0.20;0.20;;;12.60;76.70;;;;;;5011759;28;20046;-73
2022/06/10 02:18:16;;;;;;;0.63;0.38;;;12.60;76.80;;;;;;4992977;28;20042;-73
2022/06/10 02:20:47;;;;;;;0.65;0.30;;;12.60;76.80;;;;;;4978091;28;20478;-73
2022/06/10 02:23:18;;;;;;;0.73;0.40;;;12.60;76.80;;;;;;5011456;28;20474;-73
2022/06/10 02:25:49;;;;;;;0.17;0.17;;;12.60;76.80;;;;;;5011761;28;20038;-73
2022/06/10 02:28:22;;;;;;;0.60;0.30;;;12.80;76.90;;;;;;5011685;28;20037;-73
2022/06/10 02:31:08;;;;;;;0.30;0.30;;;12.70;76.80;;;;;;5011327;28;20068;-73
2022/06/10 02:33:36;;;;;;;0.40;0.30;;;12.70;76.80;;;;;;5011809;28;20046;-74
2022/06/10 02:36:38;;;;;;;0.55;0.30;;;12.70;76.70;;;;;;5007884;28;20096;-73
2022/06/10 02:39:29;;;;;;;0.35;0.35;;;12.90;76.80;;;;;;5002034;28;20030;-73
2022/06/10 02:42:26;;;;;;;0.57;0.50;;;12.70;76.60;;;;;;5014776;28;20036;-73
2022/06/10 02:45:14;;;;;;;0.55;0.30;;;12.80;76.60;;;;;;5014631;28;20034;-73
2022/06/10 02:47:58;;;;;;;0.55;0.40;;;13.00;76.60;;;;;;5015059;28;20037;-73
2022/06/10 02:50:25;;;;;;;0.77;0.35;;;13.10;76.30;;;;;;4996887;28;20486;-73
2022/06/10 02:52:52;;;;;;;0.65;0.50;;;13.30;76.00;;;;;;5014995;28;20034;-73
2022/06/10 02:55:22;;;;;;;0.40;0.40;;;13.40;75.80;;;;;;5014362;28;20037;-73
2022/06/10 03:04:10;;;;;;;1.40;0.40;;;13.70;75.10;;;;;;4999417;28;20089;-73
2022/06/10 03:06:45;;;;;;;1.38;0.60;;;13.90;74.90;;;;;;5014540;28;20120;-73
2022/06/10 03:09:17;;;;;;;0.90;0.40;;;14.00;74.80;;;;;;5014201;28;20042;-73
2022/06/10 03:12:06;;;;;;;1.13;0.50;;;14.00;74.70;;;;;;4995740;28;20035;-73
2022/06/10 03:15:09;;;;;;;0.50;0.50;;;14.10;74.80;;;;;;5014229;28;20041;-73
2022/06/10 03:17:57;;;;;;;1.10;0.52;;;14.10;74.70;;;;;;4996464;28;20038;-73
2022/06/10 03:20:34;;;;;;;0.40;0.40;;;14.10;74.60;;;;;;5014071;28;20057;-73
2022/06/10 03:23:24;;;;;;;0.93;0.55;;;14.30;74.60;;;;;;4995875;28;20038;-73
2022/06/10 03:25:55;;;;;;;1.38;0.50;;;14.30;74.60;;;;;;5014085;28;20030;-73
2022/06/10 03:28:44;;;;;;;1.85;0.63;;;14.30;75.30;;;;;;5013963;28;20124;-73
2022/06/10 03:31:29;;;;;;;1.00;0.55;;;14.20;74.60;;;;;;5014156;28;20455;-73
2022/06/10 03:34:06;;;;;;;1.20;0.65;;;14.40;74.70;;;;;;4998016;28;20065;-73
2022/06/10 03:36:33;;;;;;;0.52;0.50;;;14.40;74.70;;;;;;4996498;28;20133;-73
2022/06/10 03:39:01;;;;;;;0.47;0.47;;;14.40;74.70;;;;;;5014371;28;20026;-73
2022/06/10 03:41:31;;;;;;;1.58;0.60;;;14.40;74.60;;;;;;5013924;28;20497;-73
2022/06/10 03:44:00;;;;;;;0.82;0.50;;;14.60;74.80;;;;;;4996242;28;20397;-73
2022/06/10 03:46:30;;;;;;;1.13;0.55;;;14.50;74.70;;;;;;5014056;28;20061;-73
2022/06/10 03:48:57;;;;;;;0.55;0.50;;;14.60;74.70;;;;;;4995145;28;20042;-73
2022/06/10 03:51:23;;;;;;;0.77;0.50;;;14.60;74.80;;;;;;5013557;28;20049;-73
2022/06/10 03:53:49;;;;;;;0.82;0.60;;;14.60;74.80;;;;;;5013871;28;20069;-73
2022/06/10 03:56:21;;;;;;;0.47;0.35;;;14.60;74.90;;;;;;5014018;28;20120;-73
2022/06/10 03:58:47;;;;;;;1.65;0.40;;;14.60;75.00;;;;;;4995313;28;20026;-73
2022/06/10 04:01:13;;;;;;;0.38;0.38;;;14.60;75.10;;;;;;5013511;28;20045;-73
2022/06/10 04:03:38;;;;;;;0.85;0.50;;;14.60;75.20;;;;;;5013793;28;20065;-73
2022/06/10 04:06:04;;;;;;;0.93;0.47;;;14.60;75.40;;;;;;5014434;28;20038;-73
2022/06/10 04:08:30;;;;;;;1.40;0.65;;;14.60;75.50;;;;;;5013726;28;20033;-73
2022/06/10 04:10:56;;;;;;;0.75;0.47;;;14.50;75.50;;;;;;5013812;28;20045;-72
2022/06/10 04:13:21;;;;;;;1.40;0.55;;;14.60;75.70;;;;;;5013729;28;20064;-73
2022/06/10 04:15:48;;;;;;;0.47;0.40;;;14.60;75.80;;;;;;4978990;28;20482;-73
2022/06/10 04:18:14;;;;;;;0.75;0.45;;;14.60;76.00;;;;;;5013893;28;20083;-73
2022/06/10 04:20:41;;;;;;;0.95;0.50;;;14.50;76.30;;;;;;5013519;28;20525;-73
2022/06/10 04:23:07;;;;;;;0.98;0.47;;;14.50;76.40;;;;;;5013707;28;20030;-73
2022/06/10 04:25:35;;;;;;;0.77;0.40;;;14.50;76.60;;;;;;5013931;28;20069;-73
2022/06/10 04:28:01;;;;;;;0.90;0.52;;;14.50;76.80;;;;;;4996373;28;20034;-74
2022/06/10 04:30:33;;;;;;;0.57;0.40;;;14.50;76.90;;;;;;5013342;28;20034;-73
2022/06/10 04:32:59;;;;;;;;;;;14.50;77.00;;;;;;5014262;28;20041;-73
2022/06/10 04:35:26;;;;;;;0.40;0.40;;;14.50;76.90;;;;;;4995860;28;19913;-73
2022/06/10 04:37:53;;;;;;;0.57;0.55;;;14.50;76.90;;;;;;5013260;28;20042;-73
2022/06/10 04:40:22;;;;;;;0.40;0.40;;;14.50;77.00;;;;;;4979483;28;20030;-73
2022/06/10 04:42:49;;;;;;;1.45;0.68;;;14.40;77.00;;;;;;4995603;28;20041;-73
2022/06/10 04:45:16;;;;;;;0.60;0.50;;;14.50;77.20;;;;;;4995605;28;20053;-73
2022/06/10 04:47:42;;;;;;;0.90;0.50;;;14.40;77.40;;;;;;5013140;28;20097;-73
2022/06/10 04:50:10;;;;;;;0.90;0.50;;;14.40;77.70;;;;;;4978807;28;20042;-73
2022/06/10 04:52:36;;;;;;;0.73;0.47;;;14.40;78.00;;;;;;5013099;28;20038;-73
2022/06/10 04:55:03;;;;;;;0.73;0.40;;;14.30;78.10;;;;;;5012732;28;20521;-73
2022/06/10 04:57:29;;;;;;;1.58;0.60;;;14.30;78.30;;;;;;4995583;28;20034;-73
2022/06/10 04:59:55;;;;;;;1.35;0.60;;;14.30;78.40;;;;;;4994784;28;20033;-73
2022/06/10 05:02:21;;;;;;;0.50;0.40;;;14.30;78.50;;;;;;5013167;28;20034;-73
2022/06/10 05:04:48;;;;;;;0.50;0.50;;;14.30;78.60;;;;;;5012780;28;20049;-74
2022/06/10 05:07:13;;;;;;;0.55;0.47;;;14.30;78.70;;;;;;5013290;28;20041;-74
2022/06/10 05:09:39;;;;;;;1.35;0.43;;;14.30;78.80;;;;;;5013080;28;20033;-73
2022/06/10 05:12:05;;;;;;;0.60;0.32;;;14.40;79.00;;;;;;5012995;28;20107;-73
2022/06/10 05:14:31;;;;;;;0.30;0.20;;;14.40;79.00;;;;;;4995732;28;20038;-73
2022/06/10 05:16:57;;;;;;;1.52;0.50;;;14.50;79.10;;;;;;4995306;28;20144;-73
2022/06/10 05:19:24;;;;;;;0.20;0.20;;;14.50;79.00;;;;;;5012466;28;20030;-73
2022/06/10 05:21:50;;;;;;;0.60;0.47;;;14.60;79.00;;;;;;5012674;28;20034;-73
2022/06/10 05:24:16;;;;;;;0.60;0.38;;;14.70;79.10;;;;;;5013057;28;20046;-73
2022/06/10 05:26:42;;;;;;;0.95;0.30;;;14.70;79.00;;;;;;5012962;28;20104;-73
2022/06/10 05:29:08;;;;;;;0.30;0.30;;;14.80;79.00;;;;;;5013078;28;20042;-73
2022/06/10 05:31:33;;;;;;;1.35;0.50;;;14.80;78.90;;;;;;5012363;28;20034;-72
2022/06/10 05:36:42;;;;;;;1.13;0.45;;;15.00;78.90;;;;;;5011670;28;20478;-73
2022/06/10 05:39:08;;;;;;;0.60;0.45;;;15.00;78.90;;;;;;4995184;28;20026;-73
2022/06/10 05:44:12;;;;;;;0.55;0.47;;;15.20;79.00;;;;;;5012476;28;20049;-73
2022/06/10 05:46:38;;;;;;;0.63;0.40;;;15.30;78.90;;;;;;5012193;28;20038;-73
2022/06/10 05:49:04;;;;;;;0.50;0.50;;;15.30;78.80;;;;;;4994824;28;20121;-72
2022/06/10 05:51:29;;;;;;;0.47;0.35;;;15.30;78.80;;;;;;5012244;28;20030;-73
2022/06/10 05:53:55;;;;;;;0.52;0.40;;;15.40;78.90;;;;;;5012201;28;20105;-73
2022/06/10 05:56:21;;;;;;;1.20;0.60;;;15.40;78.90;;;;;;4991855;28;20034;-73
2022/06/10 05:58:47;;;;;;;0.75;0.50;;;15.50;78.90;;;;;;5012268;28;20140;-73
2022/06/10 06:01:13;;;;;;;0.88;0.40;;;15.60;78.90;;;;;;4993405;28;20517;-73
2022/06/10 06:03:38;;;;;;;0.65;0.30;;;15.70;78.90;;;;;;4994725;28;20037;-73
2022/06/10 06:06:04;;;;;;;0.60;0.40;;;15.70;78.80;;;;;;4994211;28;20409;-73
2022/06/10 06:08:30;;;;;;;0.90;0.50;;;15.80;78.80;;;;;;4993893;28;20026;-73
2022/06/10 06:10:56;;;;;;;1.58;0.50;;;15.80;78.60;;;;;;4977465;28;20027;-73
2022/06/10 06:13:22;;;;;;;1.27;0.70;;;15.90;78.60;;;;;;5011531;28;20036;-73
2022/06/10 06:15:48;;;;;;;1.73;0.70;;;16.00;78.60;;;;;;4994511;28;20050;-73
2022/06/10 06:18:14;;;;;;;1.67;0.60;;;16.00;78.50;;;;;;5011572;28;20030;-74
2022/06/10 06:20:40;;;;;;;0.82;0.60;;;16.00;78.50;;;;;;5011967;28;20405;-73
2022/06/10 06:23:06;;;;;;;0.52;0.50;;;16.10;78.60;;;;;;5011584;28;20042;-73
2022/06/10 06:25:32;;;;;;;1.58;0.65;;;16.10;78.50;;;;;;5012230;28;20030;-72
2022/06/10 06:27:58;;;;;;;2.10;0.68;;;16.20;78.40;;;;;;4993053;28;20038;-73
2022/06/10 06:30:31;;;;;;;0.90;0.40;;;16.30;78.30;;;;;;5011952;28;20367;-73
2022/06/10 06:33:01;;;;;;;1.10;0.70;;;16.40;78.30;;;;;;5011591;28;20482;-73
2022/06/10 06:35:27;;;;;;;2.38;0.70;;;16.40;78.10;;;;;;5011831;28;20038;-74
2022/06/10 06:37:55;;;;;;;1.60;0.60;;;16.60;78.10;;;;;;5011401;28;20041;-73
2022/06/10 06:40:21;;;;;;;0.73;0.50;;;16.50;78.00;;;;;;4962101;28;20049;-74
2022/06/10 06:42:48;;;;;;;1.17;0.63;;;16.60;78.10;;;;;;4993051;28;20474;-72
2022/06/10 06:45:14;;;;;;;0.75;0.60;;;16.60;78.10;;;;;;4977689;28;20069;-74
2022/06/10 06:47:43;;;;;;;0.82;0.50;;;16.60;78.10;;;;;;4994622;28;20038;-73
2022/06/10 06:50:14;;;;;;;3.15;0.80;;;16.70;78.10;;;;;;4978212;28;20062;-75
2022/06/10 06:52:43;;;;;;;1.05;0.55;;;16.70;78.10;;;;;;4977855;28;20041;-76
2022/06/10 06:55:10;;;;;;;1.10;0.63;;;16.80;78.10;;;;;;5011208;28;20124;-75
2022/06/10 06:57:36;;;;;;;1.00;0.60;;;16.80;78.00;;;;;;4977560;28;20038;-73
2022/06/10 07:00:05;;;;;;;0.90;0.40;;;16.90;78.00;;;;;;5011858;28;20492;-73
2022/06/10 07:02:34;;;;;;;1.88;0.70;;;16.90;78.00;;;;;;4992453;28;20034;-73
2022/06/10 07:05:00;;;;;;;2.47;0.90;;;16.90;78.00;;;;;;5011117;28;20045;-74
2022/06/10 07:07:26;;;;;;;1.70;0.63;;;17.00;78.00;;;;;;5011745;28;20045;-74
2022/06/10 07:09:52;;;;;;;1.15;0.75;;;17.00;78.00;;;;;;5011067;28;20042;-74
2022/06/10 07:12:17;;;;;;;0.95;0.70;;;16.90;78.00;;;;;;5011769;28;20149;-74
2022/06/10 07:14:43;;;;;;;0.80;0.80;;;17.10;78.10;;;;;;4992715;28;20047;-74
2022/06/10 07:17:11;;;;;;;1.17;0.80;;;17.00;78.00;;;;;;5011386;28;20074;-74
2022/06/10 07:19:38;;;;;;;1.63;0.60;;;17.10;78.00;;;;;;4977936;28;20495;-74
2022/06/10 07:22:06;;;;;;;2.92;0.90;;;17.10;77.90;;;;;;4994089;28;20109;-73
2022/06/10 07:24:32;;;;;;;1.45;0.50;;;17.10;77.90;;;;;;5014188;28;20026;-73
2022/06/10 07:27:04;;;;;;;1.40;0.65;;;17.20;77.80;;;;;;4996941;28;20037;-75
2022/06/10 07:29:31;;;;;;;3.50;0.60;;;17.20;77.70;;;;;;4995107;28;20034;-74
2022/06/10 07:31:57;;;;;;;1.77;0.90;;;17.30;77.70;;;;;;5014715;28;20477;-75
2022/06/10 07:34:22;;;;;;;1.10;0.60;;;17.40;77.60;;;;;;5014588;28;20052;-75
2022/06/10 07:36:48;;;;;;;1.00;0.70;;;17.40;77.50;;;;;;5014054;28;20040;-73
2022/06/10 07:39:14;;;;;;;1.10;0.70;;;17.40;77.40;;;;;;5014070;28;20084;-73
2022/06/10 07:44:21;;;;;;;;;;;17.50;77.40;;;;;;5011671;28;20137;-74
2022/06/10 07:46:49;;;;;;;1.60;0.40;;;17.60;77.20;;;;;;5014189;28;19944;-74
2022/06/10 07:49:15;;;;;;;2.00;0.70;;;17.60;77.10;;;;;;5013964;28;20064;-74
2022/06/10 07:51:41;;;;;;;1.45;0.60;;;17.70;77.40;;;;;;4979455;28;20081;-74
2022/06/10 07:54:07;;;;;;;1.58;0.80;;;17.70;77.00;;;;;;5013836;28;20528;-76
2022/06/10 07:56:34;;;;;;;2.13;0.75;;;17.80;76.90;;;;;;5013928;28;20065;-75
2022/06/10 07:59:00;;;;;;;1.35;0.68;;;17.90;76.80;;;;;;5014006;28;20117;-73
2022/06/10 08:01:28;;;;;;;1.45;0.60;;;18.00;76.60;;;;;;4996318;28;20034;-75
2022/06/10 08:03:56;;;;;;;2.88;0.60;;;18.10;76.50;;;;;;5013898;28;20088;-73
2022/06/10 08:06:23;;;;;;;1.42;0.73;;;18.30;76.10;;;;;;5013806;28;20038;-73
2022/06/10 08:08:50;;;;;;;0.95;0.52;;;18.50;75.80;;;;;;5013618;28;20117;-74
2022/06/10 08:11:16;;;;;;;0.57;0.50;;;18.60;75.40;;;;;;4996140;28;20034;-73
2022/06/10 08:13:42;;;;;;;1.20;0.50;;;18.80;75.20;;;;;;4996361;28;20100;-75
2022/06/10 08:16:08;;;;;;;0.52;0.47;;;18.90;75.10;;;;;;5013748;28;20486;-75
2022/06/10 08:18:34;;;;;;;1.80;0.60;;;19.00;74.90;;;;;;4979790;28;20061;-75
2022/06/10 08:23:45;;;;;;;0.47;0.47;;;19.10;74.70;;;;;;4984663;28;20041;-75
2022/06/10 08:26:11;;;;;;;1.95;0.70;;;19.20;74.80;;;;;;4978536;28;20390;-75
2022/06/10 08:28:39;;;;;;;2.10;0.85;;;19.40;74.40;;;;;;5013315;28;20046;-75
2022/06/10 08:31:05;;;;;;;0.85;0.60;;;19.40;74.10;;;;;;5013570;28;20041;-75
2022/06/10 08:33:35;;;;;;;0.43;0.43;;;19.50;74.10;;;;;;5011290;28;20034;-75
2022/06/10 08:36:03;;;;;;;1.80;0.60;;;19.70;74.00;;;;;;4994663;28;20040;-75
2022/06/10 08:38:29;;;;;;;1.27;0.75;;;19.80;73.80;;;;;;5013791;28;20064;-75
2022/06/10 08:41:00;;;;;;;1.05;0.50;;;19.90;73.60;;;;;;5013105;28;20041;-76
2022/06/10 08:43:55;;;;;;;1.95;0.55;;;20.10;73.50;;;;;;5013247;28;20030;-75
2022/06/10 08:46:47;;;;;;;1.13;0.65;;;20.20;73.30;;;;;;4995325;28;20038;-76
2022/06/10 08:49:44;;;;;;;1.15;0.45;;;20.40;73.20;;;;;;5010704;28;20033;-74
2022/06/10 08:52:38;;;;;;;0.50;0.50;;;20.60;72.90;;;;;;5012976;28;20042;-75
2022/06/10 08:55:24;;;;;;;3.05;0.68;;;20.80;72.50;;;;;;4998641;28;20111;-75
2022/06/10 08:57:50;;;;;;;0.95;0.50;;;20.90;72.20;;;;;;5012851;28;20033;-74
2022/06/10 09:00:22;;;;;;;1.15;0.70;;;21.00;72.20;;;;;;5013452;28;20048;-74
2022/06/10 09:03:12;;;;;;;1.27;0.60;;;21.00;72.10;;;;;;4995207;28;20033;-75
2022/06/10 09:05:45;;;;;;;1.80;0.70;;;21.00;72.30;;;;;;4998033;28;20494;-73
2022/06/10 09:08:35;;;;;;;1.63;0.52;;;21.20;72.30;;;;;;4994861;28;20045;-71
2022/06/10 09:11:24;;;;;;;1.25;0.60;;;21.30;72.10;;;;;;5012878;28;20042;-75
2022/06/10 09:13:57;;;;;;;1.65;0.70;;;21.40;71.70;;;;;;5012422;28;20121;-74
2022/06/10 09:16:31;;;;;;;2.33;0.60;;;21.50;71.60;;;;;;5012479;28;20482;-75
2022/06/10 09:19:09;;;;;;;2.47;0.90;;;21.70;72.10;;;;;;5012527;28;20038;-75
2022/06/10 09:21:44;;;;;;;1.77;0.70;;;21.60;71.10;;;;;;4995067;28;20076;-75
2022/06/10 09:24:24;;;;;;;0.98;0.65;;;21.50;71.40;;;;;;5013080;28;20112;-76
2022/06/10 09:27:05;;;;;;;1.45;0.60;;;21.40;71.60;;;;;;4979580;28;20486;-75
2022/06/10 09:29:32;;;;;;;2.13;0.80;;;21.50;71.70;;;;;;5013261;28;20374;-75
2022/06/10 09:32:10;;;;;;;1.10;0.65;;;21.60;71.50;;;;;;4994680;28;20078;-75
2022/06/10 09:34:48;;;;;;;1.38;0.65;;;21.70;71.20;;;;;;5013027;28;20045;-75
2022/06/10 09:37:39;;;;;;;0.98;0.68;;;21.80;71.00;;;;;;5013100;28;20064;-75
2022/06/10 09:40:43;;;;;;;1.60;0.80;;;22.00;70.90;;;;;;4995050;28;20026;-74
2022/06/10 09:43:37;;;;;;;1.88;0.70;;;22.00;70.50;;;;;;5000362;28;20038;-76
2022/06/10 09:46:20;;;;;;;3.90;0.85;;;21.90;70.70;;;;;;4997508;28;20038;-76
2022/06/10 09:49:08;;;;;;;0.80;0.80;;;21.80;70.70;;;;;;4978915;28;20042;-76
2022/06/10 09:52:08;;;;;;;2.03;0.70;;;21.80;71.80;;;;;;4967226;28;20059;-76
2022/06/10 09:55:02;;;;;;;0.98;0.65;;;21.80;71.10;;;;;;4992047;28;20066;-75
2022/06/10 09:57:50;;;;;;;2.40;0.88;;;21.90;71.00;;;;;;4993153;28;20042;-76
2022/06/10 10:00:25;;;;;;;1.02;0.70;;;22.00;70.60;;;;;;4970357;28;20054;-76
2022/06/10 10:03:13;;;;;;;1.38;0.70;;;22.00;70.70;;;;;;4970547;28;20054;-77
2022/06/10 10:10:04;;;;;;;0.68;0.60;;;22.10;70.40;;;;;;4970719;28;20114;-76
2022/06/10 10:13:09;;;;;;;1.05;0.60;;;22.10;70.40;;;;;;4953284;28;20121;-76
2022/06/10 10:16:10;;;;;;;0.77;0.40;;;22.20;70.50;;;;;;4970576;28;20070;-76
2022/06/10 10:19:34;;;;;;;1.25;0.70;;;22.20;70.30;;;;;;4942614;28;20054;-77
2022/06/10 10:22:44;;;;;;;3.03;0.73;;;22.20;70.10;;;;;;4911453;29;20493;-77
2022/06/10 10:25:27;;;;;;;1.33;0.65;;;22.30;70.60;;;;;;4881390;29;20151;-76
2022/06/10 10:27:54;;;;;;;1.60;0.60;;;22.40;69.80;;;;;;4874212;29;20057;-74
2022/06/10 10:30:43;;;;;;;2.15;0.90;;;22.40;69.80;;;;;;4878049;29;20060;-74
2022/06/10 10:33:12;;;;;;;1.02;0.63;;;22.40;69.60;;;;;;4878535;29;20494;-75
2022/06/10 10:35:45;;;;;;;2.10;0.88;;;22.50;69.60;;;;;;4879110;29;20056;-76
2022/06/10 10:38:16;;;;;;;1.63;0.80;;;22.60;69.30;;;;;;4894041;29;20048;-75
2022/06/10 10:40:46;;;;;;;2.50;0.93;;;22.50;69.50;;;;;;4893821;29;20081;-74
2022/06/10 10:43:18;;;;;;;1.05;0.65;;;22.60;69.40;;;;;;4862935;29;20047;-75
2022/06/10 10:45:56;;;;;;;0.70;0.50;;;22.60;69.40;;;;;;4893984;29;20097;-74
2022/06/10 10:48:26;;;;;;;2.38;0.73;;;22.60;69.40;;;;;;4878536;29;20116;-74
2022/06/10 10:50:58;;;;;;;;;;;22.70;69.30;;;;;;4894545;29;20036;-75
2022/06/10 10:53:36;;;;;;;1.70;0.85;;;22.80;69.00;;;;;;4907666;28;19911;-75
2022/06/10 10:56:05;;;;;;;3.22;1.20;;;22.70;68.80;;;;;;4951082;28;20134;-76
2022/06/10 10:58:37;;;;;;;2.25;0.88;;;22.60;68.90;;;;;;4978396;28;20022;-75
2022/06/10 11:03:53;;;;;;;1.50;0.82;;;22.60;68.90;;;;;;5014752;28;20108;-76
2022/06/10 11:06:26;;;;;;;1.83;0.90;;;22.50;69.00;;;;;;5014700;28;20426;-76
2022/06/10 11:09:04;;;;;;;1.70;0.90;;;22.50;69.10;;;;;;4997203;28;20034;-75
2022/06/10 11:11:35;;;;;;;2.40;0.70;;;22.60;69.20;;;;;;5014578;28;20029;-76
2022/06/10 11:14:01;;;;;;;;;;;22.70;69.10;;;;;;5015453;28;20073;-75
2022/06/10 11:16:38;;;;;;;1.92;1.10;;;22.70;69.00;;;;;;5014378;28;19975;-75
2022/06/10 11:19:16;;;;;;;1.80;0.77;;;22.70;68.90;;;;;;4995443;28;20045;-76
2022/06/10 11:22:09;;;;;;;2.00;0.70;;;22.50;69.10;;;;;;5014446;28;20045;-76
2022/06/10 11:24:39;;;;;;;1.33;0.65;;;22.50;69.50;;;;;;4997226;28;20030;-74
2022/06/10 11:27:27;;;;;;;1.40;0.68;;;22.50;69.40;;;;;;4997746;28;20042;-74
2022/06/10 11:30:19;;;;;;;0.55;0.47;;;22.50;69.40;;;;;;5014434;28;20046;-75
2022/06/10 11:32:57;;;;;;;1.50;0.73;;;22.50;69.40;;;;;;5014739;28;21375;-74
2022/06/10 11:35:31;;;;;;;1.52;0.70;;;22.50;69.50;;;;;;5014426;28;20045;-74
2022/06/10 11:38:03;;;;;;;1.50;0.70;;;22.40;69.80;;;;;;5014326;28;20029;-74
2022/06/10 11:40:53;;;;;;;2.08;0.80;;;22.20;69.80;;;;;;5014121;28;20034;-75
2022/06/10 11:43:41;;;;;;;0.40;0.40;;;22.20;70.00;;;;;;5014172;28;20030;-74
2022/06/10 11:46:22;;;;;;;1.30;0.70;;;22.10;70.40;;;;;;4996496;28;20042;-74
2022/06/10 11:48:52;;;;;;;;;;;22.00;70.40;;;;;;5014246;28;20034;-74
2022/06/10 11:51:27;;;;;;;0.75;0.55;;;22.10;70.40;;;;;;4996179;28;20336;-74
2022/06/10 11:54:00;;;;;;;1.27;0.65;;;22.10;70.20;;;;;;5013859;28;20042;-74
2022/06/10 11:59:46;;;;;;;2.75;0.77;;;22.30;69.90;;;;;;5013714;28;20069;-76
2022/06/10 12:02:30;;;;;;;1.02;0.68;;;22.60;69.30;;;;;;4998149;28;20489;-75
2022/06/10 12:05:09;;;;;;;1.23;0.70;;;22.70;68.90;;;;;;4995420;28;20032;-75
2022/06/10 12:07:43;;;;;;;1.80;0.82;;;22.90;68.50;;;;;;5013247;28;20038;-74
2022/06/10 12:10:27;;;;;;;1.17;0.82;;;23.00;68.10;;;;;;5013686;28;20571;-74
2022/06/10 12:12:55;;;;;;;2.38;1.00;;;23.10;68.00;;;;;;5013971;28;20096;-74
2022/06/10 12:15:30;;;;;;;2.88;0.80;;;23.20;68.10;;;;;;5013839;28;20037;-75
2022/06/10 12:18:00;;;;;;;0.80;0.70;;;23.30;67.70;;;;;;4994635;28;20113;-71
2022/06/10 12:20:46;;;;;;;0.77;0.70;;;23.40;67.50;;;;;;5013803;28;20030;-74
2022/06/10 12:23:26;;;;;;;0.98;0.55;;;23.40;67.40;;;;;;5013094;28;20042;-75
2022/06/10 12:26:11;;;;;;;0.50;0.50;;;23.40;67.50;;;;;;5013258;28;20065;-74
2022/06/10 12:29:01;;;;;;;0.60;0.60;;;23.30;67.80;;;;;;5013226;28;20044;-76
2022/06/10 12:31:52;;;;;;;0.98;0.65;;;23.30;68.20;;;;;;5013462;28;20034;-75
2022/06/10 12:34:34;;;;;;;1.92;0.80;;;23.30;68.40;;;;;;5013022;28;20132;-76
2022/06/10 12:37:05;;;;;;;2.15;0.82;;;23.40;68.30;;;;;;5013394;28;20081;-74
2022/06/10 12:39:32;;;;;;;;;;;23.30;68.30;;;;;;5013561;28;20026;-74
2022/06/10 12:42:20;;;;;;;1.23;0.80;;;23.50;68.20;;;;;;5013194;28;19905;-75
2022/06/10 12:44:52;;;;;;;0.70;0.70;;;23.60;67.80;;;;;;4997622;28;20038;-75
2022/06/10 12:47:27;;;;;;;1.33;0.60;;;23.60;67.70;;;;;;5013789;28;20084;-75
2022/06/10 12:49:59;;;;;;;0.77;0.68;;;23.80;67.60;;;;;;4995682;28;20058;-76
2022/06/10 12:52:42;;;;;;;2.17;0.88;;;23.80;67.40;;;;;;5013713;28;20092;-77
2022/06/10 12:55:26;;;;;;;1.20;0.70;;;23.80;67.40;;;;;;4994092;28;20395;-76
2022/06/10 12:57:53;;;;;;;2.30;0.88;;;23.70;67.50;;;;;;5013092;28;20033;-76
2022/06/10 13:00:35;;;;;;;1.00;0.70;;;23.70;67.60;;;;;;4995474;28;20074;-76
2022/06/10 13:03:22;;;;;;;1.48;0.70;;;23.60;68.00;;;;;;4996114;28;20042;-76
2022/06/10 13:05:49;;;;;;;2.20;0.98;;;23.40;68.20;;;;;;4993821;28;20132;-76
2022/06/10 13:08:38;;;;;;;1.52;0.90;;;23.30;68.50;;;;;;4995325;28;20397;-76
2022/06/10 13:11:08;;;;;;;1.02;0.93;;;23.20;68.50;;;;;;5012755;28;20440;-77
2022/06/10 13:13:36;;;;;;;0.85;0.75;;;23.20;68.70;;;;;;4995434;28;20034;-77
2022/06/10 13:16:34;;;;;;;0.93;0.90;;;23.20;68.80;;;;;;5012681;28;20038;-77
2022/06/10 13:19:01;;;;;;;1.38;0.77;;;23.10;68.80;;;;;;5012573;28;20045;-76
2022/06/10 13:21:30;;;;;;;1.25;0.90;;;23.20;68.80;;;;;;5011878;28;20034;-77
2022/06/10 13:24:10;;;;;;;0.70;0.60;;;23.30;68.50;;;;;;5012773;28;20085;-78
2022/06/10 13:26:37;;;;;;;1.17;1.00;;;23.40;68.10;;;;;;5012967;28;20273;-77
2022/06/10 13:29:17;;;;;;;0.93;0.63;;;23.50;68.20;;;;;;4994623;28;20033;-77
2022/06/10 13:31:53;;;;;;;1.33;0.90;;;23.60;68.00;;;;;;5012616;28;20513;-76
2022/06/10 13:34:30;;;;;;;1.50;0.80;;;23.60;67.70;;;;;;4979163;28;20045;-75
2022/06/10 13:36:59;;;;;;;1.40;0.95;;;23.70;67.70;;;;;;5012502;28;20468;-76
2022/06/10 13:39:30;;;;;;;0.88;0.80;;;23.70;67.40;;;;;;4993947;28;20435;-75
2022/06/10 13:41:56;;;;;;;2.38;0.80;;;23.80;67.30;;;;;;5012213;28;20034;-76
2022/06/10 13:44:32;;;;;;;0.80;0.80;;;23.70;67.30;;;;;;4995110;28;20030;-75
2022/06/10 13:46:59;;;;;;;0.95;0.70;;;23.70;67.50;;;;;;5012915;28;20092;-75
2022/06/10 13:52:31;;;;;;;1.75;0.93;;;23.50;68.00;;;;;;5012199;28;20050;-75
2022/06/10 13:55:13;;;;;;;1.20;1.02;;;23.40;68.20;;;;;;4994684;28;20398;-75